sensor_id;sensor_type;location;lat;lon;timestamp;temperature;humidity
43884;DHT22;29544;52.018;5.810;2023-06-14T00:02:12;24.50;40.80
43884;DHT22;29544;52.018;5.810;2023-06-14T00:04:38;24.50;40.70
43884;DHT22;29544;52.018;5.810;2023-06-14T00:07:05;24.50;40.70
43884;DHT22;29544;52.018;5.810;2023-06-14T00:09:33;24.50;40.60
43884;DHT22;29544;52.018;5.810;2023-06-14T00:11:59;24.50;40.70
43884;DHT22;29544;52.018;5.810;2023-06-14T00:14:24;24.50;40.80
43884;DHT22;29544;52.018;5.810;2023-06-14T00:16:50;24.50;40.80
43884;DHT22;29544;52.018;5.810;2023-06-14T00:19:18;24.50;40.70
43884;DHT22;29544;52.018;5.810;2023-06-14T00:21:43;24.40;40.80
43884;DHT22;29544;52.018;5.810;2023-06-14T00:24:09;24.40;40.90
43884;DHT22;29544;52.018;5.810;2023-06-14T00:26:35;24.40;40.80
43884;DHT22;29544;52.018;5.810;2023-06-14T00:29:00;24.40;40.70
43884;DHT22;29544;52.018;5.810;2023-06-14T00:31:26;24.40;40.90
43884;DHT22;29544;52.018;5.810;2023-06-14T00:33:51;24.40;40.80
43884;DHT22;29544;52.018;5.810;2023-06-14T00:36:17;24.40;40.80
43884;DHT22;29544;52.018;5.810;2023-06-14T00:38:42;24.40;40.80
43884;DHT22;29544;52.018;5.810;2023-06-14T00:41:08;24.40;41.00
43884;DHT22;29544;52.018;5.810;2023-06-14T00:43:33;24.40;41.00
43884;DHT22;29544;52.018;5.810;2023-06-14T00:46:00;24.30;41.00
43884;DHT22;29544;52.018;5.810;2023-06-14T00:48:25;24.40;40.90
43884;DHT22;29544;52.018;5.810;2023-06-14T00:50:52;24.40;40.90
43884;DHT22;29544;52.018;5.810;2023-06-14T00:53:18;24.30;41.00
43884;DHT22;29544;52.018;5.810;2023-06-14T00:55:46;24.30;40.90
43884;DHT22;29544;52.018;5.810;2023-06-14T00:58:12;24.30;40.90
43884;DHT22;29544;52.018;5.810;2023-06-14T01:00:37;24.30;40.90
43884;DHT22;29544;52.018;5.810;2023-06-14T01:03:03;24.30;41.20
43884;DHT22;29544;52.018;5.810;2023-06-14T01:05:29;24.30;41.00
43884;DHT22;29544;52.018;5.810;2023-06-14T01:08:31;24.20;41.00
43884;DHT22;29544;52.018;5.810;2023-06-14T01:11:05;24.20;41.10
43884;DHT22;29544;52.018;5.810;2023-06-14T01:13:35;24.30;41.10
43884;DHT22;29544;52.018;5.810;2023-06-14T01:16:02;24.20;41.10
43884;DHT22;29544;52.018;5.810;2023-06-14T01:18:28;24.20;41.10
43884;DHT22;29544;52.018;5.810;2023-06-14T01:20:55;24.20;41.10
43884;DHT22;29544;52.018;5.810;2023-06-14T01:23:22;24.20;41.20
43884;DHT22;29544;52.018;5.810;2023-06-14T01:25:48;24.20;41.20
43884;DHT22;29544;52.018;5.810;2023-06-14T01:28:19;24.10;41.20
43884;DHT22;29544;52.018;5.810;2023-06-14T01:30:49;24.10;41.20
43884;DHT22;29544;52.018;5.810;2023-06-14T01:33:20;24.10;41.20
43884;DHT22;29544;52.018;5.810;2023-06-14T01:35:49;24.10;41.40
43884;DHT22;29544;52.018;5.810;2023-06-14T01:38:17;24.10;41.40
43884;DHT22;29544;52.018;5.810;2023-06-14T01:40:45;24.10;41.30
43884;DHT22;29544;52.018;5.810;2023-06-14T01:43:11;24.10;41.40
43884;DHT22;29544;52.018;5.810;2023-06-14T01:45:39;24.10;41.30
43884;DHT22;29544;52.018;5.810;2023-06-14T01:48:05;24.00;41.40
43884;DHT22;29544;52.018;5.810;2023-06-14T01:50:31;24.00;41.30
43884;DHT22;29544;52.018;5.810;2023-06-14T01:52:57;24.00;41.30
43884;DHT22;29544;52.018;5.810;2023-06-14T01:55:23;24.00;41.30
43884;DHT22;29544;52.018;5.810;2023-06-14T01:57:50;24.00;41.40
43884;DHT22;29544;52.018;5.810;2023-06-14T02:00:16;24.00;41.30
43884;DHT22;29544;52.018;5.810;2023-06-14T02:02:43;24.00;41.40
43884;DHT22;29544;52.018;5.810;2023-06-14T02:05:09;23.90;41.30
43884;DHT22;29544;52.018;5.810;2023-06-14T02:07:35;24.00;41.50
43884;DHT22;29544;52.018;5.810;2023-06-14T02:10:02;23.90;41.40
43884;DHT22;29544;52.018;5.810;2023-06-14T02:12:27;23.90;41.40
43884;DHT22;29544;52.018;5.810;2023-06-14T02:14:53;23.90;41.40
43884;DHT22;29544;52.018;5.810;2023-06-14T02:17:19;23.90;41.40
43884;DHT22;29544;52.018;5.810;2023-06-14T02:19:45;23.90;41.60
43884;DHT22;29544;52.018;5.810;2023-06-14T02:22:10;23.90;41.40
43884;DHT22;29544;52.018;5.810;2023-06-14T02:24:36;23.90;41.50
43884;DHT22;29544;52.018;5.810;2023-06-14T02:27:02;23.90;41.50
43884;DHT22;29544;52.018;5.810;2023-06-14T02:29:28;23.80;41.50
43884;DHT22;29544;52.018;5.810;2023-06-14T02:31:54;23.80;41.60
43884;DHT22;29544;52.018;5.810;2023-06-14T02:34:19;23.80;41.50
43884;DHT22;29544;52.018;5.810;2023-06-14T02:36:45;23.80;41.70
43884;DHT22;29544;52.018;5.810;2023-06-14T02:39:13;23.80;41.60
43884;DHT22;29544;52.018;5.810;2023-06-14T02:41:39;23.70;41.50
43884;DHT22;29544;52.018;5.810;2023-06-14T02:44:05;23.70;41.70
43884;DHT22;29544;52.018;5.810;2023-06-14T02:46:31;23.70;41.60
43884;DHT22;29544;52.018;5.810;2023-06-14T02:48:56;23.70;41.80
43884;DHT22;29544;52.018;5.810;2023-06-14T02:51:22;23.70;41.70
43884;DHT22;29544;52.018;5.810;2023-06-14T02:53:47;23.70;41.70
43884;DHT22;29544;52.018;5.810;2023-06-14T02:56:13;23.60;41.60
43884;DHT22;29544;52.018;5.810;2023-06-14T02:58:38;23.60;41.80
43884;DHT22;29544;52.018;5.810;2023-06-14T03:01:05;23.60;41.70
43884;DHT22;29544;52.018;5.810;2023-06-14T03:03:33;23.60;41.90
43884;DHT22;29544;52.018;5.810;2023-06-14T03:05:58;23.60;41.80
43884;DHT22;29544;52.018;5.810;2023-06-14T03:08:30;23.60;41.70
43884;DHT22;29544;52.018;5.810;2023-06-14T03:10:57;23.60;41.80
43884;DHT22;29544;52.018;5.810;2023-06-14T03:13:23;23.60;41.80
43884;DHT22;29544;52.018;5.810;2023-06-14T03:15:48;23.60;41.90
43884;DHT22;29544;52.018;5.810;2023-06-14T03:18:16;23.50;41.90
43884;DHT22;29544;52.018;5.810;2023-06-14T03:20:42;23.50;41.90
43884;DHT22;29544;52.018;5.810;2023-06-14T03:23:08;23.50;42.00
43884;DHT22;29544;52.018;5.810;2023-06-14T03:25:34;23.50;42.10
43884;DHT22;29544;52.018;5.810;2023-06-14T03:28:01;23.50;41.90
43884;DHT22;29544;52.018;5.810;2023-06-14T03:30:27;23.50;42.00
43884;DHT22;29544;52.018;5.810;2023-06-14T03:32:53;23.50;42.00
43884;DHT22;29544;52.018;5.810;2023-06-14T03:35:21;23.50;42.00
43884;DHT22;29544;52.018;5.810;2023-06-14T03:37:46;23.40;42.00
43884;DHT22;29544;52.018;5.810;2023-06-14T03:40:14;23.40;42.40
43884;DHT22;29544;52.018;5.810;2023-06-14T03:42:40;23.40;42.10
43884;DHT22;29544;52.018;5.810;2023-06-14T03:45:08;23.40;42.10
43884;DHT22;29544;52.018;5.810;2023-06-14T03:47:34;23.40;42.10
43884;DHT22;29544;52.018;5.810;2023-06-14T03:50:00;23.40;42.10
43884;DHT22;29544;52.018;5.810;2023-06-14T03:52:26;23.40;42.20
43884;DHT22;29544;52.018;5.810;2023-06-14T03:54:52;23.30;42.20
43884;DHT22;29544;52.018;5.810;2023-06-14T03:57:18;23.30;42.10
43884;DHT22;29544;52.018;5.810;2023-06-14T03:59:44;23.40;42.20
43884;DHT22;29544;52.018;5.810;2023-06-14T04:02:10;23.30;42.20
43884;DHT22;29544;52.018;5.810;2023-06-14T04:04:36;23.30;42.20
43884;DHT22;29544;52.018;5.810;2023-06-14T04:07:02;23.30;42.40
43884;DHT22;29544;52.018;5.810;2023-06-14T04:09:29;23.30;42.30
43884;DHT22;29544;52.018;5.810;2023-06-14T04:11:55;23.30;42.30
43884;DHT22;29544;52.018;5.810;2023-06-14T04:14:21;23.30;42.50
43884;DHT22;29544;52.018;5.810;2023-06-14T04:16:48;23.20;42.40
43884;DHT22;29544;52.018;5.810;2023-06-14T04:19:14;23.30;42.40
43884;DHT22;29544;52.018;5.810;2023-06-14T04:21:39;23.20;42.40
43884;DHT22;29544;52.018;5.810;2023-06-14T04:24:05;23.20;42.40
43884;DHT22;29544;52.018;5.810;2023-06-14T04:26:32;23.20;42.40
43884;DHT22;29544;52.018;5.810;2023-06-14T04:28:59;23.20;42.50
43884;DHT22;29544;52.018;5.810;2023-06-14T04:31:31;23.20;42.60
43884;DHT22;29544;52.018;5.810;2023-06-14T04:33:59;23.20;42.60
43884;DHT22;29544;52.018;5.810;2023-06-14T04:36:25;23.20;42.60
43884;DHT22;29544;52.018;5.810;2023-06-14T04:38:52;23.20;42.50
43884;DHT22;29544;52.018;5.810;2023-06-14T04:41:22;23.10;42.70
43884;DHT22;29544;52.018;5.810;2023-06-14T04:43:54;23.10;42.70
43884;DHT22;29544;52.018;5.810;2023-06-14T04:46:19;23.10;42.70
43884;DHT22;29544;52.018;5.810;2023-06-14T04:48:45;23.10;42.70
43884;DHT22;29544;52.018;5.810;2023-06-14T04:51:11;23.10;42.80
43884;DHT22;29544;52.018;5.810;2023-06-14T04:53:38;23.10;42.90
43884;DHT22;29544;52.018;5.810;2023-06-14T04:56:04;23.10;42.80
43884;DHT22;29544;52.018;5.810;2023-06-14T04:58:29;23.10;42.90
43884;DHT22;29544;52.018;5.810;2023-06-14T05:00:55;23.10;42.90
43884;DHT22;29544;52.018;5.810;2023-06-14T05:03:22;23.10;42.90
43884;DHT22;29544;52.018;5.810;2023-06-14T05:05:49;23.00;42.90
43884;DHT22;29544;52.018;5.810;2023-06-14T05:08:15;23.00;43.00
43884;DHT22;29544;52.018;5.810;2023-06-14T05:10:41;23.10;43.00
43884;DHT22;29544;52.018;5.810;2023-06-14T05:13:06;23.10;43.00
43884;DHT22;29544;52.018;5.810;2023-06-14T05:15:32;23.00;42.90
43884;DHT22;29544;52.018;5.810;2023-06-14T05:17:57;23.00;43.00
43884;DHT22;29544;52.018;5.810;2023-06-14T05:20:24;23.00;43.00
43884;DHT22;29544;52.018;5.810;2023-06-14T05:22:53;23.00;43.10
43884;DHT22;29544;52.018;5.810;2023-06-14T05:25:20;23.00;43.10
43884;DHT22;29544;52.018;5.810;2023-06-14T05:27:46;23.00;43.10
43884;DHT22;29544;52.018;5.810;2023-06-14T05:30:13;23.00;43.10
43884;DHT22;29544;52.018;5.810;2023-06-14T05:32:39;22.90;43.10
43884;DHT22;29544;52.018;5.810;2023-06-14T05:35:05;22.90;43.10
43884;DHT22;29544;52.018;5.810;2023-06-14T05:37:31;22.90;43.20
43884;DHT22;29544;52.018;5.810;2023-06-14T05:39:56;22.90;43.20
43884;DHT22;29544;52.018;5.810;2023-06-14T05:42:22;22.90;43.10
43884;DHT22;29544;52.018;5.810;2023-06-14T05:44:47;23.00;43.20
43884;DHT22;29544;52.018;5.810;2023-06-14T05:47:13;22.90;43.10
43884;DHT22;29544;52.018;5.810;2023-06-14T05:49:38;22.90;43.20
43884;DHT22;29544;52.018;5.810;2023-06-14T05:52:04;22.90;43.10
43884;DHT22;29544;52.018;5.810;2023-06-14T05:54:30;22.90;43.50
43884;DHT22;29544;52.018;5.810;2023-06-14T05:56:55;22.90;43.30
43884;DHT22;29544;52.018;5.810;2023-06-14T05:59:26;22.90;43.30
43884;DHT22;29544;52.018;5.810;2023-06-14T06:01:52;22.90;43.40
43884;DHT22;29544;52.018;5.810;2023-06-14T06:04:17;22.90;43.10
43884;DHT22;29544;52.018;5.810;2023-06-14T06:06:43;22.90;43.30
43884;DHT22;29544;52.018;5.810;2023-06-14T06:09:08;22.90;43.40
43884;DHT22;29544;52.018;5.810;2023-06-14T06:11:34;22.90;43.40
43884;DHT22;29544;52.018;5.810;2023-06-14T06:14:00;22.90;43.40
43884;DHT22;29544;52.018;5.810;2023-06-14T06:16:25;22.90;43.40
43884;DHT22;29544;52.018;5.810;2023-06-14T06:18:51;22.90;43.50
43884;DHT22;29544;52.018;5.810;2023-06-14T06:21:17;22.90;43.40
43884;DHT22;29544;52.018;5.810;2023-06-14T06:23:43;22.90;43.40
43884;DHT22;29544;52.018;5.810;2023-06-14T06:26:08;22.90;43.50
43884;DHT22;29544;52.018;5.810;2023-06-14T06:28:34;22.90;43.50
43884;DHT22;29544;52.018;5.810;2023-06-14T06:31:00;22.90;43.50
43884;DHT22;29544;52.018;5.810;2023-06-14T06:33:25;22.90;43.60
43884;DHT22;29544;52.018;5.810;2023-06-14T06:35:51;22.80;43.70
43884;DHT22;29544;52.018;5.810;2023-06-14T06:38:16;22.90;44.30
43884;DHT22;29544;52.018;5.810;2023-06-14T06:40:44;22.90;43.60
43884;DHT22;29544;52.018;5.810;2023-06-14T06:43:09;22.90;43.70
43884;DHT22;29544;52.018;5.810;2023-06-14T06:45:39;22.90;43.70
43884;DHT22;29544;52.018;5.810;2023-06-14T06:48:05;22.90;43.70
43884;DHT22;29544;52.018;5.810;2023-06-14T06:50:30;22.90;43.80
43884;DHT22;29544;52.018;5.810;2023-06-14T06:52:56;22.80;43.70
43884;DHT22;29544;52.018;5.810;2023-06-14T06:55:21;22.90;43.80
43884;DHT22;29544;52.018;5.810;2023-06-14T06:57:47;22.90;43.70
43884;DHT22;29544;52.018;5.810;2023-06-14T07:00:13;22.90;43.80
43884;DHT22;29544;52.018;5.810;2023-06-14T07:02:39;22.90;43.80
43884;DHT22;29544;52.018;5.810;2023-06-14T07:05:04;22.90;43.80
43884;DHT22;29544;52.018;5.810;2023-06-14T07:07:31;22.90;43.80
43884;DHT22;29544;52.018;5.810;2023-06-14T07:09:56;22.90;43.70
43884;DHT22;29544;52.018;5.810;2023-06-14T07:12:23;23.00;43.80
43884;DHT22;29544;52.018;5.810;2023-06-14T07:14:48;22.90;43.70
43884;DHT22;29544;52.018;5.810;2023-06-14T07:17:14;22.90;43.70
43884;DHT22;29544;52.018;5.810;2023-06-14T07:19:39;22.90;43.80
43884;DHT22;29544;52.018;5.810;2023-06-14T07:22:05;22.90;43.80
43884;DHT22;29544;52.018;5.810;2023-06-14T07:24:30;23.00;43.90
43884;DHT22;29544;52.018;5.810;2023-06-14T07:26:56;22.90;43.80
43884;DHT22;29544;52.018;5.810;2023-06-14T07:29:21;22.90;43.90
43884;DHT22;29544;52.018;5.810;2023-06-14T07:31:47;23.00;44.00
43884;DHT22;29544;52.018;5.810;2023-06-14T07:34:13;23.00;44.00
43884;DHT22;29544;52.018;5.810;2023-06-14T07:36:38;23.00;44.00
43884;DHT22;29544;52.018;5.810;2023-06-14T07:39:04;23.00;44.00
43884;DHT22;29544;52.018;5.810;2023-06-14T07:41:31;23.00;44.10
43884;DHT22;29544;52.018;5.810;2023-06-14T07:43:56;23.00;44.20
43884;DHT22;29544;52.018;5.810;2023-06-14T07:46:22;23.00;44.20
43884;DHT22;29544;52.018;5.810;2023-06-14T07:48:48;23.00;44.20
43884;DHT22;29544;52.018;5.810;2023-06-14T07:51:13;23.00;44.20
43884;DHT22;29544;52.018;5.810;2023-06-14T07:53:39;23.00;44.20
43884;DHT22;29544;52.018;5.810;2023-06-14T07:56:06;23.00;44.30
43884;DHT22;29544;52.018;5.810;2023-06-14T07:58:31;23.00;44.40
43884;DHT22;29544;52.018;5.810;2023-06-14T08:00:57;23.00;44.40
43884;DHT22;29544;52.018;5.810;2023-06-14T08:03:22;23.00;44.40
43884;DHT22;29544;52.018;5.810;2023-06-14T08:05:49;23.00;44.40
43884;DHT22;29544;52.018;5.810;2023-06-14T08:08:15;23.00;44.40
43884;DHT22;29544;52.018;5.810;2023-06-14T08:10:41;23.10;44.60
43884;DHT22;29544;52.018;5.810;2023-06-14T08:13:06;23.10;44.60
43884;DHT22;29544;52.018;5.810;2023-06-14T08:15:32;23.10;44.70
43884;DHT22;29544;52.018;5.810;2023-06-14T08:17:57;23.10;44.60
43884;DHT22;29544;52.018;5.810;2023-06-14T08:20:24;23.00;44.60
43884;DHT22;29544;52.018;5.810;2023-06-14T08:22:50;23.10;44.70
43884;DHT22;29544;52.018;5.810;2023-06-14T08:25:20;23.10;44.80
43884;DHT22;29544;52.018;5.810;2023-06-14T08:27:46;23.10;44.70
43884;DHT22;29544;52.018;5.810;2023-06-14T08:30:12;23.10;44.70
43884;DHT22;29544;52.018;5.810;2023-06-14T08:32:37;23.10;44.80
43884;DHT22;29544;52.018;5.810;2023-06-14T08:35:04;23.10;44.70
43884;DHT22;29544;52.018;5.810;2023-06-14T08:37:31;23.10;44.80
43884;DHT22;29544;52.018;5.810;2023-06-14T08:39:58;23.20;44.80
43884;DHT22;29544;52.018;5.810;2023-06-14T08:42:24;23.10;44.80
43884;DHT22;29544;52.018;5.810;2023-06-14T08:44:50;23.10;44.80
43884;DHT22;29544;52.018;5.810;2023-06-14T08:47:16;23.10;44.70
43884;DHT22;29544;52.018;5.810;2023-06-14T08:49:46;23.20;44.80
43884;DHT22;29544;52.018;5.810;2023-06-14T08:52:13;23.20;44.70
43884;DHT22;29544;52.018;5.810;2023-06-14T08:54:44;23.20;44.70
43884;DHT22;29544;52.018;5.810;2023-06-14T08:57:13;23.20;44.70
43884;DHT22;29544;52.018;5.810;2023-06-14T08:59:47;23.20;44.70
43884;DHT22;29544;52.018;5.810;2023-06-14T09:02:15;23.20;44.70
43884;DHT22;29544;52.018;5.810;2023-06-14T09:04:43;23.20;44.70
43884;DHT22;29544;52.018;5.810;2023-06-14T09:07:10;23.20;44.70
43884;DHT22;29544;52.018;5.810;2023-06-14T09:09:39;23.20;44.60
43884;DHT22;29544;52.018;5.810;2023-06-14T09:12:10;23.20;44.60
43884;DHT22;29544;52.018;5.810;2023-06-14T09:14:36;23.20;44.50
43884;DHT22;29544;52.018;5.810;2023-06-14T09:17:05;23.20;44.50
43884;DHT22;29544;52.018;5.810;2023-06-14T09:19:30;23.20;44.50
43884;DHT22;29544;52.018;5.810;2023-06-14T09:21:56;23.20;44.40
43884;DHT22;29544;52.018;5.810;2023-06-14T09:24:24;23.20;44.40
43884;DHT22;29544;52.018;5.810;2023-06-14T09:26:51;23.20;44.40
43884;DHT22;29544;52.018;5.810;2023-06-14T09:29:17;23.20;44.30
43884;DHT22;29544;52.018;5.810;2023-06-14T09:31:45;23.30;44.30
43884;DHT22;29544;52.018;5.810;2023-06-14T09:34:11;23.30;44.10
43884;DHT22;29544;52.018;5.810;2023-06-14T09:36:39;23.30;44.00
43884;DHT22;29544;52.018;5.810;2023-06-14T09:39:05;23.30;43.90
43884;DHT22;29544;52.018;5.810;2023-06-14T09:41:36;23.30;43.80
43884;DHT22;29544;52.018;5.810;2023-06-14T09:44:04;23.30;43.90
43884;DHT22;29544;52.018;5.810;2023-06-14T09:46:30;23.30;43.60
43884;DHT22;29544;52.018;5.810;2023-06-14T09:49:00;23.30;43.50
43884;DHT22;29544;52.018;5.810;2023-06-14T09:51:27;23.30;43.60
43884;DHT22;29544;52.018;5.810;2023-06-14T09:53:58;23.30;43.60
43884;DHT22;29544;52.018;5.810;2023-06-14T09:56:37;23.30;43.60
43884;DHT22;29544;52.018;5.810;2023-06-14T09:59:06;23.30;43.70
43884;DHT22;29544;52.018;5.810;2023-06-14T10:01:35;23.30;43.60
43884;DHT22;29544;52.018;5.810;2023-06-14T10:04:07;23.40;43.60
43884;DHT22;29544;52.018;5.810;2023-06-14T10:06:36;23.40;43.60
43884;DHT22;29544;52.018;5.810;2023-06-14T10:09:04;23.40;43.60
43884;DHT22;29544;52.018;5.810;2023-06-14T10:11:30;23.40;43.80
43884;DHT22;29544;52.018;5.810;2023-06-14T10:13:57;23.40;43.60
43884;DHT22;29544;52.018;5.810;2023-06-14T10:16:38;23.40;43.40
43884;DHT22;29544;52.018;5.810;2023-06-14T10:19:22;23.40;43.50
43884;DHT22;29544;52.018;5.810;2023-06-14T10:22:01;23.40;43.40
43884;DHT22;29544;52.018;5.810;2023-06-14T10:24:34;23.40;43.40
43884;DHT22;29544;52.018;5.810;2023-06-14T10:27:00;23.50;43.40
43884;DHT22;29544;52.018;5.810;2023-06-14T10:29:27;23.50;43.40
43884;DHT22;29544;52.018;5.810;2023-06-14T10:31:58;23.50;43.40
43884;DHT22;29544;52.018;5.810;2023-06-14T10:34:53;23.50;43.40
43884;DHT22;29544;52.018;5.810;2023-06-14T10:37:19;23.50;43.40
43884;DHT22;29544;52.018;5.810;2023-06-14T10:39:45;23.50;43.30
43884;DHT22;29544;52.018;5.810;2023-06-14T10:42:12;23.50;43.40
43884;DHT22;29544;52.018;5.810;2023-06-14T10:44:38;23.60;43.40
43884;DHT22;29544;52.018;5.810;2023-06-14T10:47:07;23.60;43.50
43884;DHT22;29544;52.018;5.810;2023-06-14T10:52:17;23.60;43.40
43884;DHT22;29544;52.018;5.810;2023-06-14T10:57:24;23.60;43.50
43884;DHT22;29544;52.018;5.810;2023-06-14T10:59:50;23.70;43.50
43884;DHT22;29544;52.018;5.810;2023-06-14T11:05:25;23.70;43.10
43884;DHT22;29544;52.018;5.810;2023-06-14T11:10:37;23.70;43.20
43884;DHT22;29544;52.018;5.810;2023-06-14T11:13:07;23.80;43.20
43884;DHT22;29544;52.018;5.810;2023-06-14T11:15:35;23.80;43.10
43884;DHT22;29544;52.018;5.810;2023-06-14T11:18:04;23.80;43.10
43884;DHT22;29544;52.018;5.810;2023-06-14T11:20:32;23.90;43.10
43884;DHT22;29544;52.018;5.810;2023-06-14T11:22:58;23.80;43.10
43884;DHT22;29544;52.018;5.810;2023-06-14T11:25:24;23.90;43.10
43884;DHT22;29544;52.018;5.810;2023-06-14T11:27:50;23.90;43.10
43884;DHT22;29544;52.018;5.810;2023-06-14T11:30:16;23.90;43.20
43884;DHT22;29544;52.018;5.810;2023-06-14T11:32:46;23.90;43.10
43884;DHT22;29544;52.018;5.810;2023-06-14T11:35:12;24.00;43.20
43884;DHT22;29544;52.018;5.810;2023-06-14T11:37:39;24.00;43.10
43884;DHT22;29544;52.018;5.810;2023-06-14T11:40:06;24.00;43.10
43884;DHT22;29544;52.018;5.810;2023-06-14T11:42:37;24.10;43.20
43884;DHT22;29544;52.018;5.810;2023-06-14T11:45:03;24.10;43.20
43884;DHT22;29544;52.018;5.810;2023-06-14T11:47:37;24.10;43.20
43884;DHT22;29544;52.018;5.810;2023-06-14T11:50:05;24.10;43.20
43884;DHT22;29544;52.018;5.810;2023-06-14T11:52:32;24.20;43.20
43884;DHT22;29544;52.018;5.810;2023-06-14T11:54:58;24.20;43.20
43884;DHT22;29544;52.018;5.810;2023-06-14T11:57:24;24.30;43.20
43884;DHT22;29544;52.018;5.810;2023-06-14T11:59:50;24.30;43.20
43884;DHT22;29544;52.018;5.810;2023-06-14T12:02:17;24.30;43.20
43884;DHT22;29544;52.018;5.810;2023-06-14T12:04:43;24.30;43.10
43884;DHT22;29544;52.018;5.810;2023-06-14T12:07:10;24.40;43.20
43884;DHT22;29544;52.018;5.810;2023-06-14T12:10:03;24.40;43.20
43884;DHT22;29544;52.018;5.810;2023-06-14T12:12:35;24.40;43.10
43884;DHT22;29544;52.018;5.810;2023-06-14T12:15:03;24.40;43.10
43884;DHT22;29544;52.018;5.810;2023-06-14T12:17:33;24.40;43.00
43884;DHT22;29544;52.018;5.810;2023-06-14T12:19:58;24.50;43.10
43884;DHT22;29544;52.018;5.810;2023-06-14T12:22:24;24.50;43.00
43884;DHT22;29544;52.018;5.810;2023-06-14T12:24:49;24.50;43.00
43884;DHT22;29544;52.018;5.810;2023-06-14T12:27:16;24.60;43.60
43884;DHT22;29544;52.018;5.810;2023-06-14T12:29:44;24.60;43.00
43884;DHT22;29544;52.018;5.810;2023-06-14T12:32:10;24.60;43.00
43884;DHT22;29544;52.018;5.810;2023-06-14T12:34:36;24.70;43.00
43884;DHT22;29544;52.018;5.810;2023-06-14T12:37:02;24.70;42.90
43884;DHT22;29544;52.018;5.810;2023-06-14T12:39:29;24.70;42.90
43884;DHT22;29544;52.018;5.810;2023-06-14T12:41:57;24.70;42.80
43884;DHT22;29544;52.018;5.810;2023-06-14T12:44:23;24.80;42.90
43884;DHT22;29544;52.018;5.810;2023-06-14T12:46:48;24.80;42.90
43884;DHT22;29544;52.018;5.810;2023-06-14T12:49:16;24.80;42.90
43884;DHT22;29544;52.018;5.810;2023-06-14T12:51:42;24.90;42.90
43884;DHT22;29544;52.018;5.810;2023-06-14T12:54:08;25.00;42.90
43884;DHT22;29544;52.018;5.810;2023-06-14T12:56:33;25.00;42.90
43884;DHT22;29544;52.018;5.810;2023-06-14T12:58:59;25.00;42.80
43884;DHT22;29544;52.018;5.810;2023-06-14T13:01:24;25.00;43.00
43884;DHT22;29544;52.018;5.810;2023-06-14T13:03:50;25.00;42.90
43884;DHT22;29544;52.018;5.810;2023-06-14T13:06:21;25.00;42.80
43884;DHT22;29544;52.018;5.810;2023-06-14T13:08:46;25.10;42.80
43884;DHT22;29544;52.018;5.810;2023-06-14T13:11:12;25.10;42.80
43884;DHT22;29544;52.018;5.810;2023-06-14T13:13:38;25.10;42.50
43884;DHT22;29544;52.018;5.810;2023-06-14T13:16:03;25.20;42.50
43884;DHT22;29544;52.018;5.810;2023-06-14T13:18:29;25.20;42.40
43884;DHT22;29544;52.018;5.810;2023-06-14T13:20:54;25.20;42.30
43884;DHT22;29544;52.018;5.810;2023-06-14T13:23:20;25.20;42.00
43884;DHT22;29544;52.018;5.810;2023-06-14T13:25:45;25.20;42.10
43884;DHT22;29544;52.018;5.810;2023-06-14T13:28:11;25.30;42.20
43884;DHT22;29544;52.018;5.810;2023-06-14T13:30:37;25.30;42.20
43884;DHT22;29544;52.018;5.810;2023-06-14T13:33:02;25.30;42.20
43884;DHT22;29544;52.018;5.810;2023-06-14T13:35:28;25.30;42.20
43884;DHT22;29544;52.018;5.810;2023-06-14T13:37:54;25.40;42.20
43884;DHT22;29544;52.018;5.810;2023-06-14T13:40:20;25.40;42.20
43884;DHT22;29544;52.018;5.810;2023-06-14T13:42:46;25.40;42.10
43884;DHT22;29544;52.018;5.810;2023-06-14T13:45:12;25.50;42.10
43884;DHT22;29544;52.018;5.810;2023-06-14T13:47:38;25.50;42.10
43884;DHT22;29544;52.018;5.810;2023-06-14T13:50:04;25.50;41.90
43884;DHT22;29544;52.018;5.810;2023-06-14T13:52:30;25.50;41.80
43884;DHT22;29544;52.018;5.810;2023-06-14T13:54:56;25.50;41.70
43884;DHT22;29544;52.018;5.810;2023-06-14T13:57:21;25.60;41.60
43884;DHT22;29544;52.018;5.810;2023-06-14T13:59:47;25.60;41.60
43884;DHT22;29544;52.018;5.810;2023-06-14T14:02:14;25.70;41.70
43884;DHT22;29544;52.018;5.810;2023-06-14T14:04:40;25.60;41.60
43884;DHT22;29544;52.018;5.810;2023-06-14T14:07:06;25.70;41.70
43884;DHT22;29544;52.018;5.810;2023-06-14T14:09:33;25.70;41.60
43884;DHT22;29544;52.018;5.810;2023-06-14T14:12:00;25.70;41.60
43884;DHT22;29544;52.018;5.810;2023-06-14T14:14:27;25.80;41.70
43884;DHT22;29544;52.018;5.810;2023-06-14T14:16:52;25.80;41.70
43884;DHT22;29544;52.018;5.810;2023-06-14T14:19:20;25.90;41.60
43884;DHT22;29544;52.018;5.810;2023-06-14T14:21:45;25.90;41.60
43884;DHT22;29544;52.018;5.810;2023-06-14T14:24:11;25.90;41.60
43884;DHT22;29544;52.018;5.810;2023-06-14T14:26:36;25.90;41.60
43884;DHT22;29544;52.018;5.810;2023-06-14T14:29:02;25.90;41.60
43884;DHT22;29544;52.018;5.810;2023-06-14T14:31:30;25.90;41.50
43884;DHT22;29544;52.018;5.810;2023-06-14T14:33:56;26.00;41.60
43884;DHT22;29544;52.018;5.810;2023-06-14T14:36:21;26.00;41.50
43884;DHT22;29544;52.018;5.810;2023-06-14T14:38:47;26.00;41.50
43884;DHT22;29544;52.018;5.810;2023-06-14T14:41:13;26.00;41.50
43884;DHT22;29544;52.018;5.810;2023-06-14T14:43:39;26.10;41.70
43884;DHT22;29544;52.018;5.810;2023-06-14T14:46:04;26.10;41.80
43884;DHT22;29544;52.018;5.810;2023-06-14T14:48:30;26.10;41.80
43884;DHT22;29544;52.018;5.810;2023-06-14T14:50:56;26.10;41.90
43884;DHT22;29544;52.018;5.810;2023-06-14T14:53:21;26.20;42.10
43884;DHT22;29544;52.018;5.810;2023-06-14T14:55:47;26.20;42.20
43884;DHT22;29544;52.018;5.810;2023-06-14T14:58:13;26.20;42.20
43884;DHT22;29544;52.018;5.810;2023-06-14T15:00:46;26.30;42.30
43884;DHT22;29544;52.018;5.810;2023-06-14T15:03:13;26.30;42.30
43884;DHT22;29544;52.018;5.810;2023-06-14T15:05:39;26.30;42.30
43884;DHT22;29544;52.018;5.810;2023-06-14T15:08:05;26.30;42.40
43884;DHT22;29544;52.018;5.810;2023-06-14T15:10:36;26.30;42.40
43884;DHT22;29544;52.018;5.810;2023-06-14T15:13:01;26.40;42.50
43884;DHT22;29544;52.018;5.810;2023-06-14T15:15:26;26.40;42.50
43884;DHT22;29544;52.018;5.810;2023-06-14T15:17:52;26.40;42.50
43884;DHT22;29544;52.018;5.810;2023-06-14T15:20:18;26.40;42.50
43884;DHT22;29544;52.018;5.810;2023-06-14T15:22:43;26.40;42.50
43884;DHT22;29544;52.018;5.810;2023-06-14T15:25:09;26.40;42.50
43884;DHT22;29544;52.018;5.810;2023-06-14T15:27:34;26.50;42.60
43884;DHT22;29544;52.018;5.810;2023-06-14T15:30:01;26.50;42.50
43884;DHT22;29544;52.018;5.810;2023-06-14T15:32:26;26.50;42.50
43884;DHT22;29544;52.018;5.810;2023-06-14T15:34:52;26.50;42.50
43884;DHT22;29544;52.018;5.810;2023-06-14T15:37:18;26.50;42.50
43884;DHT22;29544;52.018;5.810;2023-06-14T15:39:43;26.50;42.40